Аэропорт
Мирный (UERR)

 UERR / MJZ
ЗЦ Хабаровск
Якутск (UEEE)
Якутск (UEEE)
 62.53470, 114.03900  / 1156 ft

 UERR 161600Z 23005MPS 9999 -SHRA FEW023CB 13/11 Q1002 R25/CLRD60 NOSIG RMK QFE721
 TAF UERR 161400Z 1615/1715 23004G09MPS 9999 SCT023CB TEMPO 1615/1620 -SHRA TEMPO 1620/1624 1000 -SHRA BR SCT007 BKN020CB
UERR_j_0220
показать схемы
Название сценария Тип сценария Flight Simulator 9 Flight Simulator X Prepar3D v2 Prepar3D v3 Prepar3D v4 Prepar3D v5 xPlane
UERR2013 X-plane бесплатный


2020 © VATRUS division (Privacy Policy)